createdAt,value
2023-02-14T00:02:00.740Z,1024.51
2023-02-14T00:02:41.299Z,1024.44
2023-02-14T00:03:21.833Z,1024.47
2023-02-14T00:04:02.998Z,1024.43
2023-02-14T00:06:15.823Z,1024.41
2023-02-14T00:06:57.151Z,1024.46
2023-02-14T00:07:38.634Z,1024.42
2023-02-14T00:08:19.183Z,1024.4
2023-02-14T00:08:59.664Z,1024.44
2023-02-14T00:09:40.214Z,1024.42
2023-02-14T00:10:20.731Z,1024.41
2023-02-14T00:11:01.306Z,1024.43
2023-02-14T00:11:41.838Z,1024.4
2023-02-14T00:12:22.410Z,1024.43
2023-02-14T00:13:02.981Z,1024.41
2023-02-14T00:13:43.521Z,1024.44
2023-02-14T00:14:23.978Z,1024.41
2023-02-14T00:15:04.492Z,1024.44
2023-02-14T00:15:45.777Z,1024.42
2023-02-14T00:16:26.324Z,1024.42
2023-02-14T00:17:06.847Z,1024.43
2023-02-14T00:17:47.407Z,1024.41
2023-02-14T00:18:27.966Z,1024.39
2023-02-14T00:21:43.947Z,1024.35
2023-02-14T00:22:24.501Z,1024.39
2023-02-14T00:23:05.037Z,1024.39
2023-02-14T00:23:45.557Z,1024.37
2023-02-14T00:24:26.063Z,1024.39
2023-02-14T00:25:06.604Z,1024.39
2023-02-14T00:25:47.114Z,1024.34
2023-02-14T00:26:27.615Z,1024.34
2023-02-14T00:29:44.126Z,1024.32
2023-02-14T00:30:24.757Z,1024.35
2023-02-14T00:31:05.213Z,1024.31
2023-02-14T00:31:45.674Z,1024.31
2023-02-14T00:32:26.211Z,1024.3
2023-02-14T00:33:06.744Z,1024.28
2023-02-14T00:33:47.248Z,1024.28
2023-02-14T00:34:27.762Z,1024.23
2023-02-14T00:37:43.760Z,1024.24
2023-02-14T00:38:24.287Z,1024.23
2023-02-14T00:39:04.789Z,1024.18
2023-02-14T00:39:45.304Z,1024.23
2023-02-14T00:40:25.833Z,1024.21
2023-02-14T00:41:06.393Z,1024.2
2023-02-14T00:41:46.950Z,1024.16
2023-02-14T00:44:00.529Z,1024.17
2023-02-14T00:44:42.772Z,1024.18
2023-02-14T00:45:23.357Z,1024.21
2023-02-14T00:46:06.040Z,1024.2
2023-02-14T00:49:21.927Z,1024.2
2023-02-14T00:50:02.476Z,1024.24
2023-02-14T00:50:43.020Z,1024.22
2023-02-14T00:51:23.570Z,1024.26
2023-02-14T00:52:04.108Z,1024.25
2023-02-14T00:52:44.606Z,1024.26
2023-02-14T00:56:00.570Z,1024.27
2023-02-14T00:56:41.133Z,1024.31
2023-02-14T00:57:21.670Z,1024.3
2023-02-14T00:58:02.217Z,1024.34
2023-02-14T00:58:42.903Z,1024.3
2023-02-14T00:59:23.420Z,1024.33
2023-02-14T01:00:03.913Z,1024.32
2023-02-14T01:00:44.509Z,1024.37
2023-02-14T01:01:25.048Z,1024.34
2023-02-14T01:02:05.596Z,1024.39
2023-02-14T01:02:46.114Z,1024.4
2023-02-14T01:03:26.632Z,1024.4
2023-02-14T01:04:07.181Z,1024.4
2023-02-14T01:04:47.731Z,1024.38
2023-02-14T01:05:28.224Z,1024.4
2023-02-14T01:06:08.754Z,1024.42
2023-02-14T01:06:49.289Z,1024.39
2023-02-14T01:07:29.829Z,1024.41
2023-02-14T01:08:10.376Z,1024.36
2023-02-14T01:08:50.932Z,1024.38
2023-02-14T01:09:31.517Z,1024.34
2023-02-14T01:10:12.043Z,1024.36
2023-02-14T01:10:52.591Z,1024.38
2023-02-14T01:11:33.146Z,1024.35
2023-02-14T01:12:13.688Z,1024.35
2023-02-14T01:12:54.901Z,1024.33
2023-02-14T01:13:35.437Z,1024.35
2023-02-14T01:14:15.989Z,1024.35
2023-02-14T01:14:56.543Z,1024.34
2023-02-14T01:15:37.097Z,1024.32
2023-02-14T01:16:17.736Z,1024.37
2023-02-14T01:16:58.186Z,1024.35
2023-02-14T01:17:38.744Z,1024.37
2023-02-14T01:18:19.255Z,1024.36
2023-02-14T01:18:59.814Z,1024.39
2023-02-14T01:19:40.918Z,1024.38
2023-02-14T01:20:21.427Z,1024.41
2023-02-14T01:21:01.973Z,1024.39
2023-02-14T01:21:42.493Z,1024.39
2023-02-14T01:22:23.019Z,1024.39
2023-02-14T01:23:04.441Z,1024.4
2023-02-14T01:23:45.000Z,1024.36
2023-02-14T01:24:25.547Z,1024.4
2023-02-14T01:25:06.099Z,1024.38
2023-02-14T01:25:46.629Z,1024.38
2023-02-14T01:26:27.150Z,1024.4
2023-02-14T01:27:07.678Z,1024.39
2023-02-14T01:27:48.193Z,1024.4
2023-02-14T01:28:29.419Z,1024.4
2023-02-14T01:29:09.957Z,1024.4
2023-02-14T01:29:50.489Z,1024.4
2023-02-14T01:30:31.059Z,1024.39
2023-02-14T01:31:12.471Z,1024.4
2023-02-14T01:31:52.940Z,1024.4
2023-02-14T01:32:33.409Z,1024.36
2023-02-14T01:33:13.939Z,1024.36
2023-02-14T01:33:54.469Z,1024.37
2023-02-14T01:34:34.966Z,1024.41
2023-02-14T01:36:47.740Z,1024.38
2023-02-14T01:37:28.242Z,1024.37
2023-02-14T01:38:08.788Z,1024.38
2023-02-14T01:38:49.280Z,1024.41
2023-02-14T01:39:29.793Z,1024.41
2023-02-14T01:40:10.305Z,1024.4
2023-02-14T01:40:50.832Z,1024.4
2023-02-14T01:41:31.341Z,1024.35
2023-02-14T01:43:44.106Z,1024.39
2023-02-14T01:44:24.630Z,1024.41
2023-02-14T01:45:05.141Z,1024.36
2023-02-14T01:45:47.557Z,1024.42
2023-02-14T01:46:28.008Z,1024.38
2023-02-14T01:47:08.565Z,1024.39
2023-02-14T01:47:49.063Z,1024.38
2023-02-14T01:48:29.588Z,1024.39
2023-02-14T01:49:10.098Z,1024.42
2023-02-14T01:49:50.596Z,1024.39
2023-02-14T01:50:31.145Z,1024.4
2023-02-14T01:51:11.638Z,1024.46
2023-02-14T01:51:52.159Z,1024.4
2023-02-14T01:52:32.705Z,1024.42
2023-02-14T01:54:30.370Z,1024.49
2023-02-14T01:55:10.912Z,1024.45
2023-02-14T01:55:51.369Z,1024.47
2023-02-14T01:56:31.877Z,1024.52
2023-02-14T01:57:12.392Z,1024.5
2023-02-14T01:57:52.949Z,1024.5
2023-02-14T01:58:33.517Z,1024.5
2023-02-14T01:59:14.049Z,1024.51
2023-02-14T01:59:54.573Z,1024.52
2023-02-14T02:00:35.200Z,1024.52
2023-02-14T02:01:15.762Z,1024.5
2023-02-14T02:01:56.227Z,1024.53
2023-02-14T02:02:36.807Z,1024.51
2023-02-14T02:03:17.253Z,1024.51
2023-02-14T02:03:57.772Z,1024.53
2023-02-14T02:04:38.328Z,1024.52
2023-02-14T02:06:35.984Z,1024.51
2023-02-14T02:07:16.657Z,1024.55
2023-02-14T02:07:57.094Z,1024.52
2023-02-14T02:08:37.632Z,1024.52
2023-02-14T02:09:18.183Z,1024.59
2023-02-14T02:09:58.828Z,1024.5
2023-02-14T02:10:39.316Z,1024.54
2023-02-14T02:11:19.850Z,1024.55
2023-02-14T02:12:00.375Z,1024.52
2023-02-14T02:12:40.890Z,1024.49
2023-02-14T02:13:21.442Z,1024.49
2023-02-14T02:14:02.862Z,1024.51
2023-02-14T02:14:43.575Z,1024.46
2023-02-14T02:15:24.090Z,1024.48
2023-02-14T02:16:04.615Z,1024.46
2023-02-14T02:16:45.156Z,1024.46
2023-02-14T02:17:25.667Z,1024.43
2023-02-14T02:18:06.193Z,1024.43
2023-02-14T02:18:46.726Z,1024.38
2023-02-14T02:19:27.270Z,1024.4
2023-02-14T02:20:07.816Z,1024.37
2023-02-14T02:20:48.369Z,1024.37
2023-02-14T02:21:28.906Z,1024.38
2023-02-14T02:22:09.474Z,1024.39
2023-02-14T02:22:50.065Z,1024.37
2023-02-14T02:23:30.642Z,1024.33
2023-02-14T02:24:11.258Z,1024.38
2023-02-14T02:24:51.821Z,1024.39
2023-02-14T02:25:32.353Z,1024.39
2023-02-14T02:26:12.938Z,1024.33
2023-02-14T02:26:53.454Z,1024.36
2023-02-14T02:27:33.981Z,1024.35
2023-02-14T02:28:14.492Z,1024.34
2023-02-14T02:28:55.007Z,1024.35
2023-02-14T02:29:35.555Z,1024.35
2023-02-14T02:30:16.189Z,1024.3
2023-02-14T02:30:56.756Z,1024.33
2023-02-14T02:31:37.278Z,1024.3
2023-02-14T02:32:17.743Z,1024.33
2023-02-14T02:32:58.266Z,1024.31
2023-02-14T02:33:38.772Z,1024.31
2023-02-14T02:34:19.311Z,1024.33
2023-02-14T02:34:59.876Z,1024.32
2023-02-14T02:35:40.389Z,1024.3
2023-02-14T02:36:20.934Z,1024.32
2023-02-14T02:37:01.451Z,1024.32
2023-02-14T02:37:41.967Z,1024.32
2023-02-14T02:38:22.500Z,1024.33
2023-02-14T02:39:03.021Z,1024.33
2023-02-14T02:39:43.585Z,1024.32
2023-02-14T02:40:24.136Z,1024.28
2023-02-14T02:41:04.654Z,1024.29
2023-02-14T02:41:45.171Z,1024.32
2023-02-14T02:42:25.705Z,1024.29
2023-02-14T02:43:06.242Z,1024.3
2023-02-14T02:43:46.785Z,1024.29
2023-02-14T02:44:27.317Z,1024.3
2023-02-14T02:45:07.818Z,1024.32
2023-02-14T02:45:48.357Z,1024.35
2023-02-14T02:46:28.925Z,1024.3
2023-02-14T02:47:09.405Z,1024.3
2023-02-14T02:47:49.935Z,1024.29
2023-02-14T02:48:30.448Z,1024.27
2023-02-14T02:49:11.054Z,1024.29
2023-02-14T02:49:51.579Z,1024.26
2023-02-14T02:50:32.084Z,1024.25
2023-02-14T02:51:12.604Z,1024.24
2023-02-14T02:51:53.159Z,1024.23
2023-02-14T02:52:34.209Z,1024.23
2023-02-14T02:53:14.714Z,1024.22
2023-02-14T02:53:55.238Z,1024.19
2023-02-14T02:54:35.749Z,1024.17
2023-02-14T02:55:16.259Z,1024.21
2023-02-14T02:55:56.808Z,1024.21
2023-02-14T02:56:37.288Z,1024.2
2023-02-14T02:57:17.804Z,1024.24
2023-02-14T02:57:58.303Z,1024.2
2023-02-14T02:58:38.848Z,1024.19
2023-02-14T02:59:19.334Z,1024.2
2023-02-14T02:59:59.877Z,1024.23
2023-02-14T03:00:40.386Z,1024.19
2023-02-14T03:01:20.923Z,1024.16
2023-02-14T03:02:01.450Z,1024.21
2023-02-14T03:02:41.954Z,1024.17
2023-02-14T03:03:22.490Z,1024.22
2023-02-14T03:04:03.004Z,1024.19
2023-02-14T03:04:43.557Z,1024.22
2023-02-14T03:05:24.039Z,1024.2
2023-02-14T03:06:04.560Z,1024.22
2023-02-14T03:06:45.102Z,1024.24
2023-02-14T03:08:42.760Z,1024.24
2023-02-14T03:09:23.281Z,1024.22
2023-02-14T03:10:03.801Z,1024.23
2023-02-14T03:10:44.318Z,1024.24
2023-02-14T03:11:24.833Z,1024.2
2023-02-14T03:12:05.355Z,1024.23
2023-02-14T03:12:45.857Z,1024.27
2023-02-14T03:13:26.386Z,1024.22
2023-02-14T03:15:39.135Z,1024.21
2023-02-14T03:16:19.612Z,1024.2
2023-02-14T03:17:00.135Z,1024.19
2023-02-14T03:17:40.677Z,1024.18
2023-02-14T03:18:21.190Z,1024.16
2023-02-14T03:19:01.710Z,1024.14
2023-02-14T03:19:42.219Z,1024.15
2023-02-14T03:20:22.773Z,1024.13
2023-02-14T03:21:03.263Z,1024.16
2023-02-14T03:21:43.773Z,1024.15
2023-02-14T03:22:24.292Z,1024.13
2023-02-14T03:23:04.788Z,1024.16
2023-02-14T03:23:45.311Z,1024.13
2023-02-14T03:24:25.964Z,1024.14
2023-02-14T03:25:06.497Z,1024.13
2023-02-14T03:25:47.010Z,1024.15
2023-02-14T03:26:27.541Z,1024.14
2023-02-14T03:27:08.080Z,1024.15
2023-02-14T03:27:48.618Z,1024.13
2023-02-14T03:28:29.110Z,1024.15
2023-02-14T03:29:09.682Z,1024.15
2023-02-14T03:29:50.247Z,1024.14
2023-02-14T03:30:30.799Z,1024.14
2023-02-14T03:31:11.507Z,1024.11
2023-02-14T03:31:51.970Z,1024.16
2023-02-14T03:32:32.328Z,1024.16
2023-02-14T03:33:12.865Z,1024.16
2023-02-14T03:33:53.378Z,1024.16
2023-02-14T03:34:33.905Z,1024.2
2023-02-14T03:35:14.417Z,1024.18
2023-02-14T03:35:54.970Z,1024.21
2023-02-14T03:36:35.482Z,1024.24
2023-02-14T03:37:16.019Z,1024.22
2023-02-14T03:37:56.541Z,1024.26
2023-02-14T03:38:37.068Z,1024.26
2023-02-14T03:39:17.567Z,1024.22
2023-02-14T03:41:15.217Z,1024.21
2023-02-14T03:41:55.726Z,1024.19
2023-02-14T03:42:36.222Z,1024.22
2023-02-14T03:43:16.725Z,1024.23
2023-02-14T03:43:57.239Z,1024.24
2023-02-14T03:44:37.781Z,1024.23
2023-02-14T03:45:18.380Z,1024.24
2023-02-14T03:45:58.799Z,1024.28
2023-02-14T03:46:39.413Z,1024.28
2023-02-14T03:47:19.883Z,1024.29
2023-02-14T03:48:00.373Z,1024.29
2023-02-14T03:48:40.887Z,1024.26
2023-02-14T03:49:21.415Z,1024.3
2023-02-14T03:50:01.910Z,1024.26
2023-02-14T03:50:42.483Z,1024.28
2023-02-14T03:51:23.014Z,1024.25
2023-02-14T03:52:03.529Z,1024.26
2023-02-14T03:52:44.070Z,1024.29
2023-02-14T03:53:24.587Z,1024.26
2023-02-14T03:54:05.094Z,1024.24
2023-02-14T03:54:45.627Z,1024.28
2023-02-14T03:55:26.124Z,1024.27
2023-02-14T03:56:06.656Z,1024.25
2023-02-14T03:56:47.195Z,1024.24
2023-02-14T03:57:27.729Z,1024.26
2023-02-14T03:58:08.273Z,1024.29
2023-02-14T03:58:48.777Z,1024.25
2023-02-14T03:59:29.305Z,1024.26
2023-02-14T04:00:09.811Z,1024.29
2023-02-14T04:00:50.325Z,1024.28
2023-02-14T04:01:30.886Z,1024.31
2023-02-14T04:02:11.380Z,1024.31
2023-02-14T04:04:09.579Z,1024.34
2023-02-14T04:04:50.100Z,1024.33
2023-02-14T04:05:30.620Z,1024.35
2023-02-14T04:06:11.116Z,1024.33
2023-02-14T04:06:51.646Z,1024.35
2023-02-14T04:07:32.125Z,1024.38
2023-02-14T04:11:42.454Z,1024.36
2023-02-14T04:12:35.929Z,1024.38
2023-02-14T04:13:03.550Z,1024.34
2023-02-14T04:13:44.031Z,1024.38
2023-02-14T04:14:24.568Z,1024.32
2023-02-14T04:15:05.067Z,1024.35
2023-02-14T04:15:45.628Z,1024.37
2023-02-14T04:16:26.118Z,1024.37
2023-02-14T04:17:06.653Z,1024.35
2023-02-14T04:17:47.165Z,1024.34
2023-02-14T04:18:27.696Z,1024.37
2023-02-14T04:20:26.209Z,1024.31
2023-02-14T04:21:06.852Z,1024.32
2023-02-14T04:21:47.505Z,1024.3
2023-02-14T04:22:28.087Z,1024.3
2023-02-14T04:26:45.110Z,1024.29
2023-02-14T04:27:25.740Z,1024.29
2023-02-14T04:28:06.913Z,1024.31
2023-02-14T04:28:47.412Z,1024.26
2023-02-14T04:31:01.109Z,1024.26
2023-02-14T04:31:41.295Z,1024.28
2023-02-14T04:32:21.824Z,1024.26
2023-02-14T04:33:03.224Z,1024.28
2023-02-14T04:35:16.447Z,1024.27
2023-02-14T04:35:56.979Z,1024.3
2023-02-14T04:36:37.473Z,1024.28
2023-02-14T04:37:17.977Z,1024.27
2023-02-14T04:38:00.154Z,1024.27
2023-02-14T04:38:40.616Z,1024.26
2023-02-14T04:39:21.122Z,1024.26
2023-02-14T04:40:01.635Z,1024.25
2023-02-14T04:40:42.160Z,1024.25
2023-02-14T04:42:41.101Z,1024.25
2023-02-14T04:43:21.609Z,1024.28
2023-02-14T04:44:02.122Z,1024.26
2023-02-14T04:44:42.641Z,1024.29
2023-02-14T04:46:56.191Z,1024.24
2023-02-14T04:47:36.652Z,1024.25
2023-02-14T04:48:17.181Z,1024.23
2023-02-14T04:48:57.684Z,1024.25
2023-02-14T04:49:38.202Z,1024.21
2023-02-14T04:50:18.725Z,1024.21
2023-02-14T04:50:59.613Z,1024.21
2023-02-14T04:51:39.750Z,1024.18
2023-02-14T04:52:20.272Z,1024.21
2023-02-14T04:53:00.793Z,1024.23
2023-02-14T04:53:41.327Z,1024.2
2023-02-14T04:54:21.857Z,1024.19
2023-02-14T04:55:02.401Z,1024.17
2023-02-14T04:57:00.517Z,1024.2
2023-02-14T04:57:41.024Z,1024.2
2023-02-14T04:58:21.532Z,1024.16
2023-02-14T04:59:02.034Z,1024.12
2023-02-14T04:59:42.561Z,1024.13
2023-02-14T05:00:23.075Z,1024.11
2023-02-14T05:01:03.820Z,1024.11
2023-02-14T05:01:44.857Z,1024.16
2023-02-14T05:02:26.383Z,1024.17
2023-02-14T05:03:06.868Z,1024.14
2023-02-14T05:03:47.355Z,1024.15
2023-02-14T05:04:27.866Z,1024.12
2023-02-14T05:05:08.397Z,1024.13
2023-02-14T05:05:48.923Z,1024.11
2023-02-14T05:06:29.465Z,1024.12
2023-02-14T05:07:09.994Z,1024.11
2023-02-14T05:07:50.501Z,1024.11
2023-02-14T05:08:31.012Z,1024.1
2023-02-14T05:09:11.541Z,1024.11
2023-02-14T05:09:52.046Z,1024.13
2023-02-14T05:10:32.547Z,1024.11
2023-02-14T05:11:13.063Z,1024.11
2023-02-14T05:11:53.584Z,1024.05
2023-02-14T05:12:34.134Z,1024.09
2023-02-14T05:13:14.674Z,1024.06
2023-02-14T05:13:55.198Z,1024.06
2023-02-14T05:14:35.711Z,1024.08
2023-02-14T05:16:33.867Z,1024.05
2023-02-14T05:17:14.340Z,1024.05
2023-02-14T05:17:54.867Z,1024.11
2023-02-14T05:18:36.266Z,1024.08
2023-02-14T05:19:16.794Z,1024.05
2023-02-14T05:19:57.313Z,1024.08
2023-02-14T05:20:37.819Z,1024.09
2023-02-14T05:22:51.410Z,1024.07
2023-02-14T05:23:31.907Z,1024.04
2023-02-14T05:24:12.450Z,1024.09
2023-02-14T05:24:54.842Z,1024.08
2023-02-14T05:27:12.939Z,1024.11
2023-02-14T05:27:54.069Z,1024.12
2023-02-14T05:28:34.583Z,1024.13
2023-02-14T05:29:15.047Z,1024.1
2023-02-14T05:29:56.527Z,1024.13
2023-02-14T05:30:37.063Z,1024.16
2023-02-14T05:31:17.748Z,1024.14
2023-02-14T05:31:58.271Z,1024.17
2023-02-14T05:32:38.714Z,1024.18
2023-02-14T05:33:19.473Z,1024.16
2023-02-14T05:33:59.978Z,1024.2
2023-02-14T05:34:40.484Z,1024.21
2023-02-14T05:35:20.961Z,1024.22
2023-02-14T05:36:01.453Z,1024.21
2023-02-14T05:36:41.948Z,1024.21
2023-02-14T05:38:39.926Z,1024.2
2023-02-14T05:39:20.467Z,1024.18
2023-02-14T05:40:01.045Z,1024.23
2023-02-14T05:40:41.708Z,1024.22
2023-02-14T05:41:22.250Z,1024.24
2023-02-14T05:42:02.781Z,1024.21
2023-02-14T05:43:55.322Z,1024.23
2023-02-14T05:44:35.861Z,1024.24
2023-02-14T05:45:16.413Z,1024.25
2023-02-14T05:45:56.990Z,1024.23
2023-02-14T05:46:37.515Z,1024.25
2023-02-14T05:47:18.140Z,1024.26
2023-02-14T05:47:58.661Z,1024.25
2023-02-14T05:48:39.171Z,1024.23
2023-02-14T05:49:19.724Z,1024.25
2023-02-14T05:50:00.294Z,1024.27
2023-02-14T05:50:40.822Z,1024.26
2023-02-14T05:52:38.482Z,1024.22
2023-02-14T05:53:19.037Z,1024.27
2023-02-14T05:53:59.582Z,1024.25
2023-02-14T05:54:40.132Z,1024.29
2023-02-14T05:55:20.735Z,1024.26
2023-02-14T05:56:01.260Z,1024.25
2023-02-14T05:56:41.815Z,1024.25
2023-02-14T05:57:22.347Z,1024.28
2023-02-14T05:58:02.939Z,1024.25
2023-02-14T05:58:43.464Z,1024.29
2023-02-14T05:59:24.017Z,1024.25
2023-02-14T06:00:05.487Z,1024.26
2023-02-14T06:00:46.073Z,1024.27
2023-02-14T06:01:26.616Z,1024.28
2023-02-14T06:02:07.186Z,1024.24
2023-02-14T06:02:47.670Z,1024.26
2023-02-14T06:03:28.371Z,1024.26
2023-02-14T06:04:10.742Z,1024.27
2023-02-14T06:04:51.816Z,1024.24
2023-02-14T06:05:32.308Z,1024.25
2023-02-14T06:06:12.800Z,1024.2
2023-02-14T06:08:25.542Z,1024.24
2023-02-14T06:09:06.065Z,1024.31
2023-02-14T06:09:46.588Z,1024.28
2023-02-14T06:10:27.181Z,1024.33
2023-02-14T06:11:07.692Z,1024.34
2023-02-14T06:11:48.263Z,1024.38
2023-02-14T06:12:28.795Z,1024.34
2023-02-14T06:13:09.348Z,1024.38
2023-02-14T06:13:49.906Z,1024.37
2023-02-14T06:14:30.448Z,1024.39
2023-02-14T06:15:11.007Z,1024.36
2023-02-14T06:15:51.578Z,1024.37
2023-02-14T06:16:32.168Z,1024.37
2023-02-14T06:17:12.653Z,1024.37
2023-02-14T06:17:53.191Z,1024.33
2023-02-14T06:18:33.734Z,1024.35
2023-02-14T06:19:14.252Z,1024.34
2023-02-14T06:21:07.149Z,1024.33
2023-02-14T06:21:49.274Z,1024.36
2023-02-14T06:22:31.522Z,1024.33
2023-02-14T06:23:12.089Z,1024.31
2023-02-14T06:23:52.671Z,1024.38
2023-02-14T06:24:33.105Z,1024.36
2023-02-14T06:25:13.798Z,1024.35
2023-02-14T06:25:54.141Z,1024.38
2023-02-14T06:26:34.652Z,1024.33
2023-02-14T06:27:15.082Z,1024.34
2023-02-14T06:27:55.574Z,1024.4
2023-02-14T06:28:36.057Z,1024.37
2023-02-14T06:29:16.562Z,1024.39
2023-02-14T06:29:57.083Z,1024.4
2023-02-14T06:30:37.846Z,1024.42
2023-02-14T06:31:18.815Z,1024.42
2023-02-14T06:33:32.258Z,1024.46
2023-02-14T06:34:15.338Z,1024.45
2023-02-14T06:34:54.337Z,1024.46
2023-02-14T06:35:35.648Z,1024.46
2023-02-14T06:38:51.921Z,1024.49
2023-02-14T06:39:32.416Z,1024.53
2023-02-14T06:40:12.932Z,1024.53
2023-02-14T06:40:53.437Z,1024.54
2023-02-14T06:41:34.149Z,1024.55
2023-02-14T06:42:14.692Z,1024.53
2023-02-14T06:44:27.793Z,1024.54
2023-02-14T06:45:08.317Z,1024.55
2023-02-14T06:45:48.900Z,1024.53
2023-02-14T06:46:29.503Z,1024.55
2023-02-14T06:47:09.967Z,1024.57
2023-02-14T06:50:26.869Z,1024.6
2023-02-14T06:51:07.378Z,1024.57
2023-02-14T06:51:47.898Z,1024.61
2023-02-14T06:52:28.367Z,1024.6
2023-02-14T06:53:08.889Z,1024.6
2023-02-14T06:53:49.362Z,1024.58
2023-02-14T06:54:29.858Z,1024.58
2023-02-14T06:55:10.318Z,1024.56
2023-02-14T06:55:51.569Z,1024.6
2023-02-14T06:56:32.047Z,1024.58
2023-02-14T06:57:12.582Z,1024.61
2023-02-14T06:57:53.041Z,1024.61
2023-02-14T06:58:34.498Z,1024.61
2023-02-14T06:59:14.955Z,1024.61
2023-02-14T06:59:55.451Z,1024.59
2023-02-14T07:00:35.974Z,1024.62
2023-02-14T07:01:16.504Z,1024.62
2023-02-14T07:01:57.745Z,1024.59
2023-02-14T07:02:38.393Z,1024.6
2023-02-14T07:03:18.774Z,1024.62
2023-02-14T07:05:32.704Z,1024.6
2023-02-14T07:06:13.225Z,1024.62
2023-02-14T07:06:53.755Z,1024.67
2023-02-14T07:07:37.006Z,1024.63
2023-02-14T07:09:50.952Z,1024.67
2023-02-14T07:10:31.464Z,1024.66
2023-02-14T07:11:11.940Z,1024.66
2023-02-14T07:11:52.461Z,1024.64
2023-02-14T07:12:33.024Z,1024.61
2023-02-14T07:13:13.458Z,1024.66
2023-02-14T07:13:54.005Z,1024.63
2023-02-14T07:14:35.274Z,1024.59
2023-02-14T07:15:15.829Z,1024.63
2023-02-14T07:15:56.491Z,1024.63
2023-02-14T07:16:36.952Z,1024.66
2023-02-14T07:17:17.506Z,1024.65
2023-02-14T07:17:57.991Z,1024.6
2023-02-14T07:18:38.479Z,1024.66
2023-02-14T07:20:51.527Z,1024.66
2023-02-14T07:21:32.944Z,1024.62
2023-02-14T07:22:14.299Z,1024.65
2023-02-14T07:22:55.584Z,1024.64
2023-02-14T07:23:36.938Z,1024.62
2023-02-14T07:24:17.422Z,1024.61
2023-02-14T07:24:58.004Z,1024.63
2023-02-14T07:27:10.748Z,1024.67
2023-02-14T07:27:51.272Z,1024.65
2023-02-14T07:28:31.756Z,1024.61
2023-02-14T07:29:12.258Z,1024.63
2023-02-14T07:29:52.800Z,1024.63
2023-02-14T07:30:33.299Z,1024.59
2023-02-14T07:31:13.941Z,1024.57
2023-02-14T07:31:54.605Z,1024.61
2023-02-14T07:32:34.894Z,1024.6
2023-02-14T07:33:15.405Z,1024.59
2023-02-14T07:33:55.954Z,1024.58
2023-02-14T07:34:36.490Z,1024.57
2023-02-14T07:35:16.977Z,1024.59
2023-02-14T07:35:57.589Z,1024.62
2023-02-14T07:36:38.132Z,1024.57
2023-02-14T07:39:06.409Z,1024.54
2023-02-14T07:39:46.903Z,1024.54
2023-02-14T07:40:27.442Z,1024.54
2023-02-14T07:41:07.962Z,1024.56
2023-02-14T07:41:48.991Z,1024.54
2023-02-14T07:42:29.502Z,1024.51
2023-02-14T07:43:10.087Z,1024.49
2023-02-14T07:43:50.538Z,1024.51
2023-02-14T07:44:31.896Z,1024.55
2023-02-14T07:45:21.818Z,1024.49
2023-02-14T07:45:52.955Z,1024.52
2023-02-14T07:46:33.550Z,1024.52
2023-02-14T07:47:13.959Z,1024.56
2023-02-14T07:47:55.072Z,1024.52
2023-02-14T07:48:35.587Z,1024.52
2023-02-14T07:49:16.114Z,1024.56
2023-02-14T07:49:56.599Z,1024.55
2023-02-14T07:53:14.411Z,1024.55
2023-02-14T07:53:55.001Z,1024.6
2023-02-14T07:54:35.520Z,1024.56
2023-02-14T07:55:16.132Z,1024.55
2023-02-14T07:55:58.156Z,1024.53
2023-02-14T07:56:38.813Z,1024.56
2023-02-14T07:57:19.319Z,1024.56
2023-02-14T07:57:59.827Z,1024.55
2023-02-14T07:58:40.976Z,1024.56
2023-02-14T07:59:21.473Z,1024.57
2023-02-14T08:00:01.932Z,1024.59
2023-02-14T08:00:42.437Z,1024.57
2023-02-14T08:01:23.832Z,1024.55
2023-02-14T08:02:04.203Z,1024.6
2023-02-14T08:02:44.692Z,1024.63
2023-02-14T08:03:25.295Z,1024.59
2023-02-14T08:04:05.837Z,1024.59
2023-02-14T08:04:46.385Z,1024.65
2023-02-14T08:05:26.959Z,1024.63
2023-02-14T08:06:07.499Z,1024.66
2023-02-14T08:06:48.782Z,1024.65
2023-02-14T08:07:30.066Z,1024.66
2023-02-14T08:08:10.602Z,1024.67
2023-02-14T08:08:51.090Z,1024.69
2023-02-14T08:09:31.697Z,1024.69
2023-02-14T08:10:13.157Z,1024.65
2023-02-14T08:10:52.737Z,1024.64
2023-02-14T08:12:50.406Z,1024.63
2023-02-14T08:13:30.908Z,1024.61
2023-02-14T08:14:11.534Z,1024.6
2023-02-14T08:14:52.100Z,1024.6
2023-02-14T08:15:32.708Z,1024.6
2023-02-14T08:17:45.444Z,1024.56
2023-02-14T08:18:25.961Z,1024.59
2023-02-14T08:19:06.505Z,1024.58
2023-02-14T08:19:47.062Z,1024.59
2023-02-14T08:20:27.663Z,1024.61
2023-02-14T08:21:08.153Z,1024.62
2023-02-14T08:21:48.659Z,1024.62
2023-02-14T08:22:29.170Z,1024.61
2023-02-14T08:23:09.721Z,1024.58
2023-02-14T08:23:50.253Z,1024.62
2023-02-14T08:26:19.022Z,1024.62
2023-02-14T08:26:59.660Z,1024.64
2023-02-14T08:27:40.163Z,1024.6
2023-02-14T08:28:21.269Z,1024.61
2023-02-14T08:29:01.825Z,1024.61
2023-02-14T08:29:42.921Z,1024.57
2023-02-14T08:30:23.440Z,1024.58
2023-02-14T08:31:04.315Z,1024.59
2023-02-14T08:31:44.535Z,1024.63
2023-02-14T08:32:25.191Z,1024.62
2023-02-14T08:33:05.629Z,1024.6
2023-02-14T08:33:46.188Z,1024.62
2023-02-14T08:34:27.770Z,1024.63
2023-02-14T08:35:08.274Z,1024.6
2023-02-14T08:35:48.825Z,1024.6
2023-02-14T08:36:29.372Z,1024.6
2023-02-14T08:38:27.481Z,1024.61
2023-02-14T08:39:07.894Z,1024.6
2023-02-14T08:39:48.449Z,1024.61
2023-02-14T08:40:31.118Z,1024.63
2023-02-14T08:41:12.516Z,1024.61
2023-02-14T08:41:53.039Z,1024.6
2023-02-14T08:42:33.550Z,1024.61
2023-02-14T08:44:46.409Z,1024.64
2023-02-14T08:45:26.857Z,1024.68
2023-02-14T08:46:07.880Z,1024.69
2023-02-14T08:46:48.400Z,1024.67
2023-02-14T08:47:28.884Z,1024.69
2023-02-14T08:48:10.161Z,1024.62
2023-02-14T08:48:50.595Z,1024.67
2023-02-14T08:49:31.080Z,1024.67
2023-02-14T08:50:12.418Z,1024.7
2023-02-14T08:50:52.930Z,1024.69
2023-02-14T08:51:33.430Z,1024.71
2023-02-14T08:52:13.934Z,1024.69
2023-02-14T08:52:54.476Z,1024.7
2023-02-14T08:53:34.935Z,1024.68
2023-02-14T08:54:16.196Z,1024.73
2023-02-14T08:54:57.286Z,1024.73
2023-02-14T08:55:37.790Z,1024.72
2023-02-14T08:56:20.044Z,1024.71
2023-02-14T08:57:00.563Z,1024.72
2023-02-14T08:57:41.060Z,1024.73
2023-02-14T08:58:21.607Z,1024.69
2023-02-14T09:00:50.589Z,1024.74
2023-02-14T09:01:33.432Z,1024.72
2023-02-14T09:02:13.783Z,1024.75
2023-02-14T09:02:54.288Z,1024.72
2023-02-14T09:03:36.703Z,1024.77
2023-02-14T09:05:27.627Z,1024.73
2023-02-14T09:06:08.137Z,1024.74
2023-02-14T09:06:49.155Z,1024.72
2023-02-14T09:07:29.682Z,1024.74
2023-02-14T09:09:43.959Z,1024.74
2023-02-14T09:10:24.588Z,1024.76
2023-02-14T09:11:05.088Z,1024.77
2023-02-14T09:11:46.136Z,1024.78
2023-02-14T09:12:26.624Z,1024.79
2023-02-14T09:13:07.164Z,1024.82
2023-02-14T09:13:47.714Z,1024.82
2023-02-14T09:14:32.132Z,1024.8
2023-02-14T09:16:49.463Z,1024.81
2023-02-14T09:17:29.863Z,1024.81
2023-02-14T09:18:10.361Z,1024.81
2023-02-14T09:18:50.895Z,1024.82
2023-02-14T09:19:31.352Z,1024.82
2023-02-14T09:20:11.852Z,1024.81
2023-02-14T09:20:52.337Z,1024.8
2023-02-14T09:21:32.980Z,1024.81
2023-02-14T09:22:13.354Z,1024.8
2023-02-14T09:22:53.923Z,1024.82
2023-02-14T09:23:34.470Z,1024.82
2023-02-14T09:24:15.031Z,1024.82
2023-02-14T09:24:55.686Z,1024.83
2023-02-14T09:26:48.515Z,1024.81
2023-02-14T09:27:29.034Z,1024.83
2023-02-14T09:28:09.660Z,1024.78
2023-02-14T09:28:50.048Z,1024.78
2023-02-14T09:29:30.567Z,1024.77
2023-02-14T09:30:11.129Z,1024.76
2023-02-14T09:30:54.060Z,1024.74
2023-02-14T09:31:32.168Z,1024.75
2023-02-14T09:32:12.631Z,1024.76
2023-02-14T09:32:53.059Z,1024.76
2023-02-14T09:33:33.543Z,1024.77
2023-02-14T09:34:14.079Z,1024.77
2023-02-14T09:34:54.573Z,1024.72
2023-02-14T09:35:35.085Z,1024.72
2023-02-14T09:36:15.625Z,1024.73
2023-02-14T09:36:56.185Z,1024.67
2023-02-14T09:39:24.615Z,1024.69
2023-02-14T09:40:05.195Z,1024.66
2023-02-14T09:40:45.684Z,1024.63
2023-02-14T09:41:26.268Z,1024.66
2023-02-14T09:42:06.746Z,1024.65
2023-02-14T09:42:48.095Z,1024.66
2023-02-14T09:43:28.627Z,1024.66
2023-02-14T09:44:09.136Z,1024.64